Time,TemperatureF,DewpointF,PressureIn,WindDirection,WindDirectionDegrees,WindSpeedMPH,WindSpeedGustMPH,Humidity,HourlyPrecipIn,Conditions,Clouds,dailyrainin,SolarRadiationWatts/m^2,SoftwareType,DateUTC
2013-06-03 00:02:00,51.0,48.0,-100.00,SSE,153,1.0,5.0,88,0.00,,,0.00,0.000000,,2013-06-03 05:02:00,
2013-06-03 00:32:00,51.0,48.0,-100.00,SSW,202,3.0,5.0,89,0.00,,,0.00,0.000000,,2013-06-03 05:32:00,
2013-06-03 00:43:00,51.0,48.0,-100.00,SSW,202,3.0,5.0,89,0.00,,,0.00,0.000000,,2013-06-03 05:43:00,
2013-06-03 00:52:00,51.0,48.0,-100.00,SSW,202,3.0,5.0,89,0.00,,,0.00,0.000000,,2013-06-03 05:52:00,
2013-06-03 01:02:00,51.0,48.0,-100.00,SSW,202,3.0,5.0,89,0.00,,,0.00,0.000000,,2013-06-03 06:02:00,
2013-06-03 01:32:00,51.0,47.0,-100.00,South,191,4.0,5.0,86,0.00,,,0.00,0.000000,,2013-06-03 06:32:00,
2013-06-03 01:42:00,51.0,47.0,-100.00,South,191,4.0,5.0,86,0.00,,,0.00,0.000000,,2013-06-03 06:42:00,
2013-06-03 01:52:00,51.0,47.0,-100.00,South,191,4.0,5.0,86,0.00,,,0.00,0.000000,,2013-06-03 06:52:00,
2013-06-03 02:02:00,51.0,47.0,-100.00,South,191,4.0,5.0,86,0.00,,,0.00,0.000000,,2013-06-03 07:02:00,
2013-06-03 02:32:00,48.0,46.0,-100.00,SW,233,3.0,4.0,94,0.00,,,0.00,0.000000,,2013-06-03 07:32:00,
2013-06-03 02:42:00,48.0,46.0,-100.00,SW,233,3.0,4.0,94,0.00,,,0.00,0.000000,,2013-06-03 07:42:00,
2013-06-03 02:52:00,48.0,46.0,-100.00,SW,233,3.0,4.0,94,0.00,,,0.00,0.000000,,2013-06-03 07:52:00,
2013-06-03 03:02:00,48.0,46.0,-100.00,SW,233,3.0,4.0,94,0.00,,,0.00,0.000000,,2013-06-03 08:02:00,
2013-06-03 03:32:00,46.0,45.0,-100.00,WSW,240,2.0,4.0,98,0.00,,,0.00,0.000000,,2013-06-03 08:32:00,
2013-06-03 03:42:00,46.0,45.0,-100.00,WSW,240,2.0,4.0,98,0.00,,,0.00,0.000000,,2013-06-03 08:42:00,
2013-06-03 03:52:00,46.0,45.0,-100.00,WSW,240,2.0,4.0,98,0.00,,,0.00,0.000000,,2013-06-03 08:52:00,
2013-06-03 04:02:00,46.0,45.0,-100.00,WSW,240,2.0,4.0,98,0.00,,,0.00,0.000000,,2013-06-03 09:02:00,
2013-06-03 04:33:00,46.0,45.0,-100.00,SSW,203,2.0,5.0,98,0.00,,,0.00,0.000000,,2013-06-03 09:33:00,
2013-06-03 04:43:00,46.0,45.0,-100.00,SSW,203,2.0,5.0,98,0.00,,,0.00,0.000000,,2013-06-03 09:43:00,
2013-06-03 04:53:00,46.0,45.0,-100.00,SSW,203,2.0,5.0,98,0.00,,,0.00,0.000000,,2013-06-03 09:53:00,
2013-06-03 05:03:00,46.0,45.0,-100.00,SSW,203,2.0,5.0,98,0.00,,,0.00,0.000000,,2013-06-03 10:03:00,
2013-06-03 05:33:00,45.0,45.0,-100.00,ESE,123,2.0,3.0,100,0.00,,,0.00,0.000000,,2013-06-03 10:33:00,
2013-06-03 05:42:00,45.0,45.0,-100.00,ESE,123,2.0,3.0,100,0.00,,,0.00,0.000000,,2013-06-03 10:42:00,
2013-06-03 05:52:00,45.0,45.0,-100.00,ESE,123,2.0,3.0,100,0.00,,,0.00,0.000000,,2013-06-03 10:52:00,
2013-06-03 06:02:00,45.0,45.0,-100.00,ESE,123,2.0,3.0,100,0.00,,,0.00,0.000000,,2013-06-03 11:02:00,
2013-06-03 06:32:00,45.0,45.0,-100.00,South,186,1.0,3.0,100,0.00,,,0.00,5.000000,,2013-06-03 11:32:00,
2013-06-03 06:42:00,45.0,45.0,-100.00,South,186,1.0,3.0,100,0.00,,,0.00,5.000000,,2013-06-03 11:42:00,
2013-06-03 06:52:00,45.0,45.0,-100.00,South,186,1.0,3.0,100,0.00,,,0.00,5.000000,,2013-06-03 11:52:00,
2013-06-03 07:02:00,45.0,45.0,-100.00,South,186,1.0,3.0,100,0.00,,,0.00,5.000000,,2013-06-03 12:02:00,
2013-06-03 07:32:00,53.0,50.0,-100.00,West,260,1.0,5.0,88,0.00,,,0.00,93.000000,,2013-06-03 12:32:00,
2013-06-03 07:42:00,53.0,50.0,-100.00,West,260,1.0,5.0,88,0.00,,,0.00,93.000000,,2013-06-03 12:42:00,
2013-06-03 07:52:00,53.0,50.0,-100.00,West,260,1.0,5.0,88,0.00,,,0.00,93.000000,,2013-06-03 12:52:00,
2013-06-03 08:02:00,53.0,50.0,-100.00,West,260,1.0,5.0,88,0.00,,,0.00,93.000000,,2013-06-03 13:02:00,
2013-06-03 08:32:00,59.0,51.0,-100.00,SSW,212,1.0,5.0,75,0.00,,,0.00,250.000000,,2013-06-03 13:32:00,
2013-06-03 08:43:00,59.0,51.0,-100.00,SSW,212,1.0,5.0,75,0.00,,,0.00,250.000000,,2013-06-03 13:43:00,
2013-06-03 08:53:00,59.0,51.0,-100.00,SSW,212,1.0,5.0,75,0.00,,,0.00,250.000000,,2013-06-03 13:53:00,
2013-06-03 09:02:00,59.0,51.0,-100.00,SSW,212,1.0,5.0,75,0.00,,,0.00,250.000000,,2013-06-03 14:02:00,
2013-06-03 09:33:00,63.0,51.0,-100.00,WSW,253,2.0,6.0,65,0.00,,,0.00,419.000000,,2013-06-03 14:33:00,
2013-06-03 09:42:00,63.0,51.0,-100.00,WSW,253,2.0,6.0,65,0.00,,,0.00,419.000000,,2013-06-03 14:42:00,
2013-06-03 09:52:00,63.0,51.0,-100.00,WSW,253,2.0,6.0,65,0.00,,,0.00,419.000000,,2013-06-03 14:52:00,
2013-06-03 10:02:00,63.0,51.0,-100.00,WSW,253,2.0,6.0,65,0.00,,,0.00,419.000000,,2013-06-03 15:02:00,
2013-06-03 10:33:00,64.0,50.0,-100.00,South,187,5.0,9.0,60,0.00,,,0.00,587.000000,,2013-06-03 15:33:00,
2013-06-03 10:43:00,64.0,50.0,-100.00,South,187,5.0,9.0,60,0.00,,,0.00,587.000000,,2013-06-03 15:43:00,
2013-06-03 10:53:00,64.0,50.0,-100.00,South,187,5.0,9.0,60,0.00,,,0.00,587.000000,,2013-06-03 15:53:00,
2013-06-03 11:03:00,64.0,50.0,-100.00,South,187,5.0,9.0,60,0.00,,,0.00,587.000000,,2013-06-03 16:03:00,
2013-06-03 11:33:00,67.0,48.0,-100.00,SE,145,5.0,11.0,50,0.00,,,0.00,733.000000,,2013-06-03 16:33:00,
2013-06-03 11:42:00,67.0,48.0,-100.00,SE,145,5.0,11.0,50,0.00,,,0.00,733.000000,,2013-06-03 16:42:00,
2013-06-03 11:53:00,67.0,48.0,-100.00,SE,145,5.0,11.0,50,0.00,,,0.00,733.000000,,2013-06-03 16:53:00,
2013-06-03 12:02:00,67.0,48.0,-100.00,SE,145,5.0,11.0,50,0.00,,,0.00,733.000000,,2013-06-03 17:02:00,
2013-06-03 12:33:00,68.0,47.0,-100.00,SE,134,6.0,12.0,47,0.00,,,0.00,824.000000,,2013-06-03 17:33:00,
2013-06-03 12:42:00,68.0,47.0,-100.00,SE,134,6.0,12.0,47,0.00,,,0.00,824.000000,,2013-06-03 17:42:00,
2013-06-03 12:52:00,68.0,47.0,-100.00,SE,134,6.0,12.0,47,0.00,,,0.00,824.000000,,2013-06-03 17:52:00,
2013-06-03 13:02:00,68.0,47.0,-100.00,SE,134,6.0,12.0,47,0.00,,,0.00,824.000000,,2013-06-03 18:02:00,
2013-06-03 13:32:00,69.0,50.0,-100.00,SSE,161,5.0,11.0,50,0.00,,,0.00,891.000000,,2013-06-03 18:32:00,
2013-06-03 13:43:00,69.0,50.0,-100.00,SSE,161,5.0,11.0,50,0.00,,,0.00,891.000000,,2013-06-03 18:43:00,
2013-06-03 13:53:00,69.0,50.0,-100.00,SSE,161,5.0,11.0,50,0.00,,,0.00,891.000000,,2013-06-03 18:53:00,
2013-06-03 14:03:00,69.0,50.0,-100.00,SSE,161,5.0,11.0,50,0.00,,,0.00,891.000000,,2013-06-03 19:03:00,
2013-06-03 14:33:00,70.0,49.0,-100.00,ESE,102,6.0,14.0,48,0.00,,,0.00,912.000000,,2013-06-03 19:33:00,
2013-06-03 14:42:00,70.0,49.0,-100.00,ESE,102,6.0,14.0,48,0.00,,,0.00,912.000000,,2013-06-03 19:42:00,
2013-06-03 14:53:00,70.0,49.0,-100.00,ESE,102,6.0,14.0,48,0.00,,,0.00,912.000000,,2013-06-03 19:53:00,
2013-06-03 15:02:00,70.0,49.0,-100.00,ESE,102,6.0,14.0,48,0.00,,,0.00,912.000000,,2013-06-03 20:02:00,
2013-06-03 15:33:00,71.0,49.0,-100.00,SE,138,6.0,13.0,46,0.00,,,0.00,875.000000,,2013-06-03 20:33:00,
2013-06-03 15:43:00,71.0,49.0,-100.00,SE,138,6.0,13.0,46,0.00,,,0.00,875.000000,,2013-06-03 20:43:00,
2013-06-03 15:52:00,71.0,49.0,-100.00,SE,138,6.0,13.0,46,0.00,,,0.00,875.000000,,2013-06-03 20:52:00,
2013-06-03 16:02:00,71.0,49.0,-100.00,SE,138,6.0,13.0,46,0.00,,,0.00,875.000000,,2013-06-03 21:02:00,
2013-06-03 16:33:00,72.0,48.0,-100.00,SE,143,5.0,14.0,43,0.00,,,0.00,790.000000,,2013-06-03 21:33:00,
2013-06-03 16:43:00,72.0,48.0,-100.00,SE,143,5.0,14.0,43,0.00,,,0.00,790.000000,,2013-06-03 21:43:00,
2013-06-03 16:53:00,72.0,48.0,-100.00,SE,143,5.0,14.0,43,0.00,,,0.00,790.000000,,2013-06-03 21:53:00,
2013-06-03 17:03:00,72.0,48.0,-100.00,SE,143,5.0,14.0,43,0.00,,,0.00,790.000000,,2013-06-03 22:03:00,
2013-06-03 17:33:00,72.0,50.0,-100.00,SE,139,6.0,14.0,46,0.00,,,0.00,658.000000,,2013-06-03 22:33:00,
2013-06-03 17:42:00,72.0,50.0,-100.00,SE,139,6.0,14.0,46,0.00,,,0.00,658.000000,,2013-06-03 22:42:00,
2013-06-03 17:53:00,72.0,50.0,-100.00,SE,139,6.0,14.0,46,0.00,,,0.00,658.000000,,2013-06-03 22:53:00,
2013-06-03 18:02:00,72.0,50.0,-100.00,SE,139,6.0,14.0,46,0.00,,,0.00,658.000000,,2013-06-03 23:02:00,
2013-06-03 18:32:00,72.0,53.0,-100.00,ESE,122,5.0,12.0,52,0.00,,,0.00,475.000000,,2013-06-03 23:32:00,
2013-06-03 18:42:00,72.0,53.0,-100.00,ESE,122,5.0,12.0,52,0.00,,,0.00,475.000000,,2013-06-03 23:42:00,
2013-06-03 18:52:00,72.0,53.0,-100.00,ESE,122,5.0,12.0,52,0.00,,,0.00,475.000000,,2013-06-03 23:52:00,
2013-06-03 19:02:00,72.0,53.0,-100.00,ESE,122,5.0,12.0,52,0.00,,,0.00,475.000000,,2013-06-04 00:02:00,
2013-06-03 19:32:00,70.0,53.0,-100.00,SE,133,5.0,12.0,54,0.00,,,0.00,306.000000,,2013-06-04 00:32:00,
2013-06-03 19:42:00,70.0,53.0,-100.00,SE,133,5.0,12.0,54,0.00,,,0.00,306.000000,,2013-06-04 00:42:00,
2013-06-03 19:52:00,70.0,53.0,-100.00,SE,133,5.0,12.0,54,0.00,,,0.00,306.000000,,2013-06-04 00:52:00,
2013-06-03 20:02:00,70.0,53.0,-100.00,SE,133,5.0,12.0,54,0.00,,,0.00,306.000000,,2013-06-04 01:02:00,
2013-06-03 20:32:00,65.0,52.0,-100.00,ESE,109,4.0,11.0,63,0.00,,,0.00,117.000000,,2013-06-04 01:32:00,
2013-06-03 20:42:00,65.0,52.0,-100.00,ESE,109,4.0,11.0,63,0.00,,,0.00,117.000000,,2013-06-04 01:42:00,
2013-06-03 20:53:00,65.0,52.0,-100.00,ESE,109,4.0,11.0,63,0.00,,,0.00,117.000000,,2013-06-04 01:53:00,
2013-06-03 21:02:00,65.0,52.0,-100.00,ESE,109,4.0,11.0,63,0.00,,,0.00,117.000000,,2013-06-04 02:02:00,
2013-06-03 21:32:00,62.0,52.0,-100.00,ESE,105,5.0,11.0,71,0.00,,,0.00,7.000000,,2013-06-04 02:32:00,
2013-06-03 21:42:00,62.0,52.0,-100.00,ESE,105,5.0,11.0,71,0.00,,,0.00,7.000000,,2013-06-04 02:42:00,
2013-06-03 21:52:00,62.0,52.0,-100.00,ESE,105,5.0,11.0,71,0.00,,,0.00,7.000000,,2013-06-04 02:52:00,
2013-06-03 22:02:00,62.0,52.0,-100.00,ESE,105,5.0,11.0,71,0.00,,,0.00,7.000000,,2013-06-04 03:02:00,
2013-06-03 22:33:00,59.0,52.0,-100.00,ESE,113,2.0,7.0,79,0.00,,,0.00,0.000000,,2013-06-04 03:33:00,
2013-06-03 22:43:00,59.0,52.0,-100.00,ESE,113,2.0,7.0,79,0.00,,,0.00,0.000000,,2013-06-04 03:43:00,
2013-06-03 22:54:00,59.0,52.0,-100.00,ESE,113,2.0,7.0,79,0.00,,,0.00,0.000000,,2013-06-04 03:54:00,
2013-06-03 23:03:00,59.0,52.0,-100.00,ESE,113,2.0,7.0,79,0.00,,,0.00,0.000000,,2013-06-04 04:03:00,
2013-06-03 23:33:00,57.0,52.0,-100.00,SSE,157,2.0,6.0,82,0.00,,,0.00,0.000000,,2013-06-04 04:33:00,
2013-06-03 23:42:00,57.0,52.0,-100.00,SSE,157,2.0,6.0,82,0.00,,,0.00,0.000000,,2013-06-04 04:42:00,
2013-06-03 23:53:00,57.0,52.0,-100.00,SSE,157,2.0,6.0,82,0.00,,,0.00,0.000000,,2013-06-04 04:53:00,